createdAt,value
2022-08-26T00:00:04.553Z,0.00
2022-08-26T00:01:04.560Z,0.00
2022-08-26T00:02:04.598Z,0.00
2022-08-26T00:03:04.572Z,0.00
2022-08-26T00:04:04.633Z,0.00
2022-08-26T00:05:04.508Z,0.00
2022-08-26T00:06:04.490Z,0.00
2022-08-26T00:07:05.344Z,0.00
2022-08-26T00:08:04.478Z,0.00
2022-08-26T00:09:04.492Z,0.00
2022-08-26T00:10:04.466Z,0.00
2022-08-26T00:11:04.411Z,0.00
2022-08-26T00:12:04.465Z,0.00
2022-08-26T00:13:04.500Z,0.00
2022-08-26T00:14:04.385Z,0.00
2022-08-26T00:15:04.747Z,0.00
2022-08-26T00:16:04.383Z,0.00
2022-08-26T00:17:04.396Z,0.00
2022-08-26T00:18:04.358Z,0.00
2022-08-26T00:19:05.349Z,0.00
2022-08-26T00:20:04.357Z,0.00
2022-08-26T00:21:06.092Z,0.00
2022-08-26T00:22:04.385Z,0.00
2022-08-26T00:23:04.345Z,0.00
2022-08-26T00:24:04.275Z,0.00
2022-08-26T00:25:04.305Z,0.00
2022-08-26T00:26:04.274Z,0.00
2022-08-26T00:27:04.237Z,0.00
2022-08-26T00:28:04.232Z,0.00
2022-08-26T00:29:04.273Z,0.00
2022-08-26T00:30:04.276Z,0.00
2022-08-26T00:31:04.221Z,0.00
2022-08-26T00:32:04.229Z,0.00
2022-08-26T00:33:04.232Z,0.00
2022-08-26T00:34:04.157Z,0.00
2022-08-26T00:35:04.185Z,0.00
2022-08-26T00:36:04.149Z,0.00
2022-08-26T00:37:04.140Z,0.00
2022-08-26T00:38:04.122Z,0.00
2022-08-26T00:39:04.111Z,0.00
2022-08-26T00:40:05.239Z,0.00
2022-08-26T00:41:04.160Z,0.00
2022-08-26T00:42:04.084Z,0.00
2022-08-26T00:43:07.021Z,0.00
2022-08-26T00:44:05.067Z,0.00
2022-08-26T00:45:04.076Z,0.00
2022-08-26T00:46:05.093Z,0.00
2022-08-26T00:47:04.079Z,0.00
2022-08-26T00:48:04.104Z,0.00
2022-08-26T00:49:04.010Z,0.00
2022-08-26T00:50:05.028Z,0.00
2022-08-26T00:51:04.023Z,0.00
2022-08-26T00:52:03.968Z,0.00
2022-08-26T00:53:04.094Z,0.00
2022-08-26T00:54:03.967Z,0.00
2022-08-26T00:55:03.991Z,0.00
2022-08-26T00:56:03.958Z,0.00
2022-08-26T00:57:04.008Z,0.00
2022-08-26T00:58:03.932Z,0.00
2022-08-26T00:59:04.223Z,0.00
2022-08-26T01:00:03.925Z,0.00
2022-08-26T01:01:04.078Z,0.00
2022-08-26T01:02:04.032Z,0.00
2022-08-26T01:03:05.257Z,0.00
2022-08-26T01:04:03.866Z,0.00
2022-08-26T01:05:03.964Z,0.00
2022-08-26T01:06:03.834Z,0.00
2022-08-26T01:07:03.818Z,0.00
2022-08-26T01:08:03.811Z,0.00
2022-08-26T01:09:03.966Z,0.00
2022-08-26T01:10:03.871Z,0.00
2022-08-26T01:11:03.764Z,0.00
2022-08-26T01:12:03.773Z,0.00
2022-08-26T01:13:03.786Z,0.00
2022-08-26T01:14:03.734Z,0.00
2022-08-26T01:15:03.796Z,0.00
2022-08-26T01:16:03.770Z,0.00
2022-08-26T01:17:05.088Z,0.00
2022-08-26T01:18:03.684Z,0.00
2022-08-26T01:19:03.702Z,0.00
2022-08-26T01:20:03.707Z,0.00
2022-08-26T01:21:03.639Z,0.00
2022-08-26T01:22:03.637Z,0.00
2022-08-26T01:23:03.768Z,0.00
2022-08-26T01:24:03.645Z,0.00
2022-08-26T01:25:03.875Z,0.00
2022-08-26T01:26:03.690Z,0.00
2022-08-26T01:27:03.589Z,0.00
2022-08-26T01:28:03.577Z,0.00
2022-08-26T01:29:03.570Z,0.00
2022-08-26T01:30:03.570Z,0.00
2022-08-26T01:31:03.541Z,0.00
2022-08-26T01:32:03.547Z,0.00
2022-08-26T01:33:03.708Z,0.00
2022-08-26T01:34:03.510Z,0.00
2022-08-26T01:35:03.534Z,0.00
2022-08-26T01:36:03.508Z,0.00
2022-08-26T01:37:03.478Z,0.00
2022-08-26T01:38:03.478Z,0.00
2022-08-26T01:39:03.468Z,0.00
2022-08-26T01:40:03.539Z,0.00
2022-08-26T01:41:03.435Z,0.00
2022-08-26T01:42:04.414Z,0.00
2022-08-26T01:43:04.508Z,0.00
2022-08-26T01:44:03.388Z,0.00
2022-08-26T01:45:03.399Z,0.00
2022-08-26T01:46:03.408Z,0.00
2022-08-26T01:47:03.385Z,0.00
2022-08-26T01:48:03.442Z,0.00
2022-08-26T01:49:03.345Z,0.00
2022-08-26T01:50:03.399Z,0.00
2022-08-26T01:51:03.318Z,0.00
2022-08-26T01:52:03.326Z,0.00
2022-08-26T01:53:03.281Z,0.00
2022-08-26T01:54:03.304Z,0.00
2022-08-26T01:55:03.325Z,0.00
2022-08-26T01:56:03.334Z,0.00
2022-08-26T01:57:03.285Z,0.00
2022-08-26T01:58:03.232Z,0.00
2022-08-26T01:59:03.314Z,0.00
2022-08-26T02:00:03.223Z,0.00
2022-08-26T02:01:03.261Z,0.00
2022-08-26T02:02:03.190Z,0.00
2022-08-26T02:03:03.183Z,0.00
2022-08-26T02:04:03.231Z,0.00
2022-08-26T02:05:03.259Z,0.00
2022-08-26T02:06:03.189Z,0.00
2022-08-26T02:07:03.168Z,0.00
2022-08-26T02:08:03.128Z,0.00
2022-08-26T02:09:03.119Z,0.00
2022-08-26T02:10:03.141Z,0.00
2022-08-26T02:11:03.119Z,0.00
2022-08-26T02:12:03.111Z,0.00
2022-08-26T02:13:03.073Z,0.00
2022-08-26T02:14:03.142Z,0.00
2022-08-26T02:15:03.095Z,0.00
2022-08-26T02:16:03.064Z,0.00
2022-08-26T02:17:03.029Z,0.00
2022-08-26T02:18:03.029Z,0.00
2022-08-26T02:19:03.021Z,0.00
2022-08-26T02:20:03.019Z,0.00
2022-08-26T02:21:03.005Z,0.00
2022-08-26T02:22:02.990Z,0.00
2022-08-26T02:23:02.994Z,0.00
2022-08-26T02:24:03.003Z,0.00
2022-08-26T02:25:02.972Z,0.00
2022-08-26T02:26:02.965Z,0.00
2022-08-26T02:27:02.949Z,0.00
2022-08-26T02:28:03.002Z,0.00
2022-08-26T02:29:02.941Z,0.00
2022-08-26T02:30:02.933Z,0.00
2022-08-26T02:31:02.959Z,0.00
2022-08-26T02:32:02.872Z,0.00
2022-08-26T02:33:02.877Z,0.00
2022-08-26T02:34:02.887Z,0.00
2022-08-26T02:35:02.870Z,0.00
2022-08-26T02:36:02.820Z,0.00
2022-08-26T02:37:02.837Z,0.00
2022-08-26T02:38:02.808Z,0.00
2022-08-26T02:39:03.829Z,0.00
2022-08-26T02:40:02.812Z,0.00
2022-08-26T02:41:02.767Z,0.00
2022-08-26T02:42:02.764Z,0.00
2022-08-26T02:43:02.788Z,0.00
2022-08-26T02:44:02.727Z,0.00
2022-08-26T02:45:02.801Z,0.00
2022-08-26T02:46:02.773Z,0.00
2022-08-26T02:47:02.826Z,0.00
2022-08-26T02:48:02.745Z,0.00
2022-08-26T02:49:02.726Z,0.00
2022-08-26T02:50:02.793Z,0.00
2022-08-26T02:51:02.694Z,0.00
2022-08-26T02:52:02.656Z,0.00
2022-08-26T02:53:02.646Z,0.00
2022-08-26T02:54:02.660Z,0.00
2022-08-26T02:55:02.671Z,0.00
2022-08-26T02:56:02.611Z,0.00
2022-08-26T02:57:02.645Z,0.00
2022-08-26T02:58:02.592Z,0.00
2022-08-26T02:59:02.592Z,0.00
2022-08-26T03:00:02.671Z,0.00
2022-08-26T03:01:02.713Z,0.00
2022-08-26T03:02:02.641Z,0.00
2022-08-26T03:03:02.561Z,0.00
2022-08-26T03:04:02.537Z,0.00
2022-08-26T03:05:02.586Z,0.00
2022-08-26T03:06:02.507Z,0.00
2022-08-26T03:07:02.530Z,0.00
2022-08-26T03:08:02.525Z,0.00
2022-08-26T03:09:02.504Z,0.00
2022-08-26T03:10:08.217Z,0.00
2022-08-26T03:11:03.446Z,0.00
2022-08-26T03:12:02.469Z,0.00
2022-08-26T03:13:05.169Z,0.00
2022-08-26T03:14:03.573Z,0.00
2022-08-26T03:15:02.466Z,0.00
2022-08-26T03:16:03.490Z,0.00
2022-08-26T03:17:02.449Z,0.00
2022-08-26T03:18:02.433Z,0.00
2022-08-26T03:19:02.383Z,0.00
2022-08-26T03:20:02.346Z,0.00
2022-08-26T03:21:02.342Z,0.00
2022-08-26T03:22:02.392Z,0.00
2022-08-26T03:23:02.353Z,0.00
2022-08-26T03:24:02.404Z,0.00
2022-08-26T03:25:02.303Z,0.00
2022-08-26T03:26:02.314Z,0.00
2022-08-26T03:27:05.941Z,0.00
2022-08-26T03:28:03.352Z,0.00
2022-08-26T03:29:02.258Z,0.00
2022-08-26T03:30:02.285Z,0.00
2022-08-26T03:31:02.274Z,0.00
2022-08-26T03:32:02.298Z,0.00
2022-08-26T03:33:02.315Z,0.00
2022-08-26T03:34:02.178Z,0.00
2022-08-26T03:35:02.221Z,0.00
2022-08-26T03:36:02.395Z,0.00
2022-08-26T03:37:02.235Z,0.00
2022-08-26T03:38:02.200Z,0.00
2022-08-26T03:39:02.169Z,0.00
2022-08-26T03:40:02.169Z,0.00
2022-08-26T03:41:02.177Z,0.00
2022-08-26T03:42:02.179Z,0.00
2022-08-26T03:43:02.203Z,0.00
2022-08-26T03:44:02.076Z,0.00
2022-08-26T03:45:02.060Z,0.00
2022-08-26T03:46:02.225Z,0.00
2022-08-26T03:47:02.055Z,0.00
2022-08-26T03:48:02.034Z,0.00
2022-08-26T03:49:02.037Z,0.00
2022-08-26T03:50:02.107Z,0.00
2022-08-26T03:51:02.026Z,0.00
2022-08-26T03:52:02.000Z,0.00
2022-08-26T03:53:02.035Z,0.00
2022-08-26T03:54:02.008Z,0.00
2022-08-26T03:55:02.013Z,0.00
2022-08-26T03:56:01.944Z,0.00
2022-08-26T03:57:01.946Z,0.00
2022-08-26T03:58:01.954Z,0.00
2022-08-26T03:59:02.030Z,0.00
2022-08-26T04:00:01.962Z,0.00
2022-08-26T04:01:01.956Z,0.00
2022-08-26T04:02:01.977Z,0.00
2022-08-26T04:03:01.985Z,0.00
2022-08-26T04:04:02.026Z,0.00
2022-08-26T04:05:01.880Z,4.00
2022-08-26T04:06:01.967Z,4.00
2022-08-26T04:07:01.851Z,0.00
2022-08-26T04:08:01.930Z,4.00
2022-08-26T04:09:01.836Z,0.00
2022-08-26T04:10:01.859Z,4.00
2022-08-26T04:11:01.866Z,4.00
2022-08-26T04:12:01.783Z,8.00
2022-08-26T04:13:01.823Z,8.00
2022-08-26T04:14:01.792Z,12.00
2022-08-26T04:15:01.824Z,8.00
2022-08-26T04:16:01.805Z,12.00
2022-08-26T04:17:01.759Z,16.00
2022-08-26T04:18:01.799Z,20.00
2022-08-26T04:19:01.713Z,20.00
2022-08-26T04:20:01.760Z,28.00
2022-08-26T04:21:01.735Z,32.00
2022-08-26T04:22:01.674Z,36.00
2022-08-26T04:23:01.718Z,44.00
2022-08-26T04:24:03.492Z,52.00
2022-08-26T04:25:01.664Z,60.00
2022-08-26T04:26:01.696Z,72.00
2022-08-26T04:27:01.605Z,80.00
2022-08-26T04:28:01.637Z,92.00
2022-08-26T04:29:01.707Z,104.00
2022-08-26T04:30:01.585Z,120.00
2022-08-26T04:31:01.683Z,136.00
2022-08-26T04:32:01.646Z,156.00
2022-08-26T04:33:01.648Z,172.00
2022-08-26T04:34:01.582Z,196.00
2022-08-26T04:35:01.888Z,216.00
2022-08-26T04:36:01.544Z,244.00
2022-08-26T04:37:01.544Z,268.00
2022-08-26T04:38:01.547Z,288.00
2022-08-26T04:39:01.481Z,316.00
2022-08-26T04:40:01.569Z,348.00
2022-08-26T04:41:01.518Z,376.00
2022-08-26T04:42:01.753Z,412.00
2022-08-26T04:43:01.484Z,448.00
2022-08-26T04:44:01.447Z,488.00
2022-08-26T04:45:01.412Z,528.00
2022-08-26T04:46:01.511Z,568.00
2022-08-26T04:47:01.415Z,608.00
2022-08-26T04:48:01.971Z,640.00
2022-08-26T04:49:01.372Z,668.00
2022-08-26T04:50:01.903Z,700.00
2022-08-26T04:51:01.394Z,740.00
2022-08-26T04:52:01.360Z,780.00
2022-08-26T04:53:01.378Z,824.00
2022-08-26T04:54:01.380Z,872.00
2022-08-26T04:55:01.329Z,940.00
2022-08-26T04:56:01.322Z,1032.00
2022-08-26T04:57:01.375Z,1120.00
2022-08-26T04:58:01.427Z,1200.00
2022-08-26T04:59:01.283Z,1276.00
2022-08-26T05:00:01.250Z,1356.00
2022-08-26T05:01:01.285Z,1436.00
2022-08-26T05:02:01.440Z,1524.00
2022-08-26T05:03:01.325Z,1608.00
2022-08-26T05:04:01.312Z,1688.00
2022-08-26T05:05:01.245Z,1756.00
2022-08-26T05:06:01.243Z,1816.00
2022-08-26T05:07:02.910Z,1876.00
2022-08-26T05:08:01.188Z,1936.00
2022-08-26T05:09:01.163Z,2012.00
2022-08-26T05:10:01.166Z,2108.00
2022-08-26T05:11:01.128Z,2228.00
2022-08-26T05:12:01.140Z,2388.00
2022-08-26T05:13:01.251Z,2560.00
2022-08-26T05:14:02.338Z,2744.00
2022-08-26T05:15:01.687Z,2908.00
2022-08-26T05:16:01.462Z,3024.00
2022-08-26T05:17:01.099Z,3108.00
2022-08-26T05:18:01.064Z,3152.00
2022-08-26T05:19:01.061Z,3196.00
2022-08-26T05:20:01.044Z,3232.00
2022-08-26T05:21:01.049Z,3248.00
2022-08-26T05:22:01.139Z,3244.00
2022-08-26T05:23:01.027Z,3232.00
2022-08-26T05:24:01.046Z,3220.00
2022-08-26T05:25:01.059Z,3200.00
2022-08-26T05:26:01.061Z,3172.00
2022-08-26T05:27:01.038Z,3164.00
2022-08-26T05:28:00.963Z,3172.00
2022-08-26T05:29:00.983Z,3188.00
2022-08-26T05:30:01.165Z,3224.00
2022-08-26T05:31:01.059Z,3280.00
2022-08-26T05:32:00.971Z,3340.00
2022-08-26T05:33:01.011Z,3364.00
2022-08-26T05:34:03.605Z,3360.00
2022-08-26T05:35:00.898Z,3304.00
2022-08-26T05:36:00.939Z,3252.00
2022-08-26T05:37:00.853Z,3236.00
2022-08-26T05:38:00.851Z,3244.00
2022-08-26T05:39:00.859Z,3252.00
2022-08-26T05:40:00.883Z,3296.00
2022-08-26T05:41:00.893Z,3380.00
2022-08-26T05:42:00.862Z,3484.00
2022-08-26T05:43:00.801Z,3564.00
2022-08-26T05:44:00.799Z,3644.00
2022-08-26T05:45:00.851Z,3728.00
2022-08-26T05:46:00.864Z,3792.00
2022-08-26T05:47:01.753Z,3884.00
2022-08-26T05:48:00.796Z,3976.00
2022-08-26T05:49:00.720Z,4028.00
2022-08-26T05:50:00.708Z,4072.00
2022-08-26T05:51:00.731Z,4096.00
2022-08-26T05:52:00.710Z,4128.00
2022-08-26T05:53:00.739Z,4168.00
2022-08-26T05:54:00.682Z,4200.00
2022-08-26T05:55:00.658Z,4252.00
2022-08-26T05:56:00.816Z,4400.00
2022-08-26T05:57:00.779Z,4448.00
2022-08-26T05:58:02.696Z,4696.00
2022-08-26T05:59:00.642Z,4688.00
2022-08-26T06:00:00.648Z,4832.00
2022-08-26T06:01:00.670Z,5196.00
2022-08-26T06:02:00.658Z,5336.00
2022-08-26T06:03:00.649Z,5456.00
2022-08-26T06:04:01.798Z,5528.00
2022-08-26T06:05:00.553Z,5432.00
2022-08-26T06:06:00.604Z,5656.00
2022-08-26T06:07:00.569Z,5760.00
2022-08-26T06:08:00.579Z,5644.00
2022-08-26T06:09:00.555Z,5492.00
2022-08-26T06:10:21.610Z,5480.00
2022-08-26T06:11:01.552Z,5692.00
2022-08-26T06:12:00.506Z,5960.00
2022-08-26T06:13:06.166Z,6020.00
2022-08-26T06:14:03.820Z,5964.00
2022-08-26T06:15:00.456Z,6020.00
2022-08-26T06:16:00.549Z,6216.00
2022-08-26T06:17:00.595Z,6160.00
2022-08-26T06:18:00.436Z,6388.00
2022-08-26T06:19:00.440Z,6480.00
2022-08-26T06:20:00.381Z,6568.00
2022-08-26T06:21:00.398Z,6668.00
2022-08-26T06:22:00.365Z,6756.00
2022-08-26T06:23:00.406Z,6800.00
2022-08-26T06:24:00.389Z,6872.00
2022-08-26T06:25:00.389Z,6940.00
2022-08-26T06:26:00.356Z,6980.00
2022-08-26T06:27:00.340Z,7060.00
2022-08-26T06:28:00.357Z,7124.00
2022-08-26T06:29:00.309Z,7220.00
2022-08-26T06:30:00.266Z,7284.00
2022-08-26T06:31:00.333Z,7364.00
2022-08-26T06:32:00.275Z,7416.00
2022-08-26T06:33:00.255Z,7520.00
2022-08-26T06:34:00.269Z,7588.00
2022-08-26T06:35:00.223Z,7548.00
2022-08-26T06:36:00.232Z,7508.00
2022-08-26T06:37:01.307Z,7748.00
2022-08-26T06:38:00.188Z,8036.00
2022-08-26T06:39:00.194Z,8628.00
2022-08-26T06:40:00.311Z,8924.00
2022-08-26T06:41:00.193Z,8776.00
2022-08-26T06:42:00.194Z,8968.00
2022-08-26T06:43:00.122Z,10172.00
2022-08-26T06:44:00.127Z,11340.00
2022-08-26T06:45:00.146Z,11120.00
2022-08-26T06:46:00.241Z,10000.00
2022-08-26T06:47:00.154Z,9324.00
2022-08-26T06:48:00.160Z,9320.00
2022-08-26T06:49:00.067Z,9684.00
2022-08-26T06:50:00.089Z,9476.00
2022-08-26T06:51:00.113Z,9352.00
2022-08-26T06:52:00.272Z,9304.00
2022-08-26T06:53:00.075Z,9328.00
2022-08-26T06:54:00.110Z,9408.00
2022-08-26T06:55:00.005Z,9496.00
2022-08-26T06:56:00.073Z,9612.00
2022-08-26T06:57:00.032Z,9760.00
2022-08-26T06:58:00.158Z,9912.00
2022-08-26T06:59:00.035Z,10152.00
2022-08-26T07:00:00.052Z,10384.00
2022-08-26T07:01:03.758Z,13212.00
2022-08-26T07:02:01.040Z,11048.00
2022-08-26T07:02:59.999Z,11344.00
2022-08-26T07:03:59.999Z,11868.00
2022-08-26T07:05:00.088Z,12520.00
2022-08-26T07:06:00.084Z,13936.00
2022-08-26T07:06:59.948Z,15936.00
2022-08-26T07:08:00.140Z,17376.00
2022-08-26T07:08:59.926Z,18368.00
2022-08-26T07:09:59.849Z,18944.00
2022-08-26T07:10:59.881Z,19456.00
2022-08-26T07:11:59.808Z,17984.00
2022-08-26T07:12:59.809Z,17120.00
2022-08-26T07:13:59.790Z,19136.00
2022-08-26T07:14:59.872Z,22016.00
2022-08-26T07:16:03.119Z,22816.00
2022-08-26T07:16:59.757Z,23904.00
2022-08-26T07:17:59.773Z,24992.00
2022-08-26T07:18:59.793Z,25568.00
2022-08-26T07:19:59.768Z,26144.00
2022-08-26T07:20:59.762Z,26496.00
2022-08-26T07:21:59.759Z,26720.00
2022-08-26T07:22:59.683Z,26368.00
2022-08-26T07:24:01.428Z,27008.00
2022-08-26T07:24:59.722Z,27712.00
2022-08-26T07:25:59.718Z,29376.00
2022-08-26T07:26:59.645Z,29888.00
2022-08-26T07:27:59.706Z,29184.00
2022-08-26T07:28:59.673Z,30912.00
2022-08-26T07:29:59.625Z,32128.00
2022-08-26T07:30:59.734Z,31168.00
2022-08-26T07:31:59.614Z,20544.00
2022-08-26T07:32:59.586Z,21920.00
2022-08-26T07:33:59.585Z,22976.00
2022-08-26T07:34:59.574Z,25152.00
2022-08-26T07:35:59.622Z,25056.00
2022-08-26T07:36:59.577Z,24736.00
2022-08-26T07:37:59.535Z,19712.00
2022-08-26T07:38:59.590Z,17248.00
2022-08-26T07:39:59.585Z,16064.00
2022-08-26T07:40:59.583Z,14936.00
2022-08-26T07:41:59.568Z,14680.00
2022-08-26T07:42:59.467Z,14588.00
2022-08-26T07:43:59.457Z,14836.00
2022-08-26T07:44:59.496Z,15200.00
2022-08-26T07:45:59.539Z,15736.00
2022-08-26T07:46:59.441Z,16608.00
2022-08-26T07:47:59.458Z,16928.00
2022-08-26T07:48:59.483Z,17056.00
2022-08-26T07:49:59.531Z,17056.00
2022-08-26T07:50:59.434Z,16992.00
2022-08-26T07:51:59.450Z,16640.00
2022-08-26T07:52:59.373Z,16096.00
2022-08-26T07:53:59.731Z,15500.00
2022-08-26T07:54:59.905Z,15256.00
2022-08-26T07:57:21.038Z,14808.00
2022-08-26T07:58:16.847Z,14660.00
2022-08-26T07:59:15.600Z,14476.00
2022-08-26T08:00:15.742Z,14468.00
2022-08-26T08:01:15.873Z,14384.00
2022-08-26T08:02:15.742Z,14304.00
2022-08-26T08:03:15.671Z,14452.00
2022-08-26T08:04:15.536Z,14464.00
2022-08-26T08:05:15.957Z,14624.00
2022-08-26T08:06:15.630Z,14672.00
2022-08-26T08:07:15.514Z,14728.00
2022-08-26T08:08:27.164Z,14768.00
2022-08-26T08:09:16.584Z,14828.00
2022-08-26T08:10:15.477Z,15028.00
2022-08-26T08:11:15.511Z,15156.00
2022-08-26T08:12:15.458Z,15500.00
2022-08-26T08:13:15.535Z,15740.00
2022-08-26T08:14:15.438Z,16064.00
2022-08-26T08:15:15.457Z,16192.00
2022-08-26T08:16:15.430Z,16352.00
2022-08-26T08:17:15.427Z,16480.00
2022-08-26T08:18:16.006Z,16672.00
2022-08-26T08:19:15.389Z,16800.00
2022-08-26T08:20:15.386Z,16896.00
2022-08-26T08:21:21.913Z,16960.00
2022-08-26T08:22:17.246Z,17056.00
2022-08-26T08:23:15.479Z,17088.00
2022-08-26T08:24:15.391Z,17152.00
2022-08-26T08:25:15.312Z,17472.00
2022-08-26T08:26:15.331Z,17792.00
2022-08-26T08:27:16.465Z,18240.00
2022-08-26T08:28:15.276Z,18656.00
2022-08-26T08:29:15.268Z,18944.00
2022-08-26T08:30:15.266Z,19040.00
2022-08-26T08:31:19.089Z,18688.00
2022-08-26T08:32:16.301Z,19072.00
2022-08-26T08:33:16.452Z,19680.00
2022-08-26T08:34:15.253Z,20576.00
2022-08-26T08:35:15.208Z,22048.00
2022-08-26T08:36:20.361Z,23232.00
2022-08-26T08:37:16.192Z,25088.00
2022-08-26T08:38:15.236Z,26368.00
2022-08-26T08:39:15.164Z,27456.00
2022-08-26T08:40:15.243Z,27680.00
2022-08-26T08:41:16.072Z,27776.00
2022-08-26T08:42:15.189Z,27904.00
2022-08-26T08:43:15.265Z,28064.00
2022-08-26T08:44:15.189Z,28384.00
2022-08-26T08:45:15.109Z,28608.00
2022-08-26T08:46:15.246Z,28640.00
2022-08-26T08:47:15.106Z,28448.00
2022-08-26T08:48:15.145Z,28800.00
2022-08-26T08:49:15.072Z,30144.00
2022-08-26T08:50:15.393Z,34112.00
2022-08-26T08:51:17.012Z,37088.00
2022-08-26T08:52:15.051Z,37728.00
2022-08-26T08:53:15.078Z,35168.00
2022-08-26T08:54:15.000Z,31104.00
2022-08-26T08:55:18.113Z,26560.00
2022-08-26T08:56:15.045Z,26464.00
2022-08-26T08:57:14.993Z,27104.00
2022-08-26T08:58:14.974Z,25888.00
2022-08-26T08:59:15.159Z,36128.00
2022-08-26T09:00:15.028Z,38528.00
2022-08-26T09:01:15.045Z,40096.00
2022-08-26T09:02:14.995Z,40544.00
2022-08-26T09:03:14.933Z,38912.00
2022-08-26T09:04:17.372Z,33984.00
2022-08-26T09:05:15.428Z,29824.00
2022-08-26T09:06:15.285Z,30112.00
2022-08-26T09:07:14.970Z,32256.00
2022-08-26T09:08:14.874Z,33600.00
2022-08-26T09:09:14.869Z,34304.00
2022-08-26T09:10:14.891Z,35808.00
2022-08-26T09:11:14.853Z,40960.00
2022-08-26T09:12:14.833Z,42272.00
2022-08-26T09:13:16.950Z,42304.00
2022-08-26T09:14:14.838Z,37120.00
2022-08-26T09:15:14.828Z,31776.00
2022-08-26T09:16:14.789Z,33056.00
2022-08-26T09:17:14.798Z,36128.00
2022-08-26T09:18:17.909Z,37024.00
2022-08-26T09:19:14.810Z,35872.00
2022-08-26T09:20:14.767Z,33408.00
2022-08-26T09:21:14.783Z,33728.00
2022-08-26T09:22:14.741Z,31808.00
2022-08-26T09:23:14.705Z,33152.00
2022-08-26T09:24:14.695Z,29280.00
2022-08-26T09:25:14.725Z,35552.00
2022-08-26T09:26:14.909Z,30848.00
2022-08-26T09:27:15.290Z,41184.00
2022-08-26T09:28:14.688Z,40928.00
2022-08-26T09:29:14.709Z,42304.00
2022-08-26T09:30:14.679Z,41568.00
2022-08-26T09:31:14.846Z,36448.00
2022-08-26T09:32:14.623Z,42432.00
2022-08-26T09:33:14.951Z,43200.00
2022-08-26T09:34:17.294Z,40096.00
2022-08-26T09:35:14.748Z,42144.00
2022-08-26T09:36:14.616Z,41312.00
2022-08-26T09:37:14.568Z,36896.00
2022-08-26T09:38:14.708Z,32256.00
2022-08-26T09:39:14.558Z,31872.00
2022-08-26T09:40:14.652Z,35360.00
2022-08-26T09:41:14.650Z,35584.00
2022-08-26T09:42:16.804Z,38208.00
2022-08-26T09:43:14.494Z,43328.00
2022-08-26T09:45:29.513Z,53344.00
2022-08-26T09:46:29.041Z,51104.00
2022-08-26T09:47:24.375Z,50784.00
2022-08-26T09:48:24.386Z,52032.00
2022-08-26T09:49:24.466Z,52544.00
2022-08-26T09:50:28.871Z,52928.00
2022-08-26T09:51:25.323Z,51584.00
2022-08-26T09:52:24.641Z,51424.00
2022-08-26T09:53:28.595Z,51072.00
2022-08-26T09:54:25.576Z,51296.00
2022-08-26T09:55:37.793Z,50048.00
2022-08-26T09:56:24.503Z,53216.00
2022-08-26T09:57:24.379Z,47328.00
2022-08-26T09:58:24.254Z,41376.00
2022-08-26T09:59:24.241Z,41120.00
2022-08-26T10:00:24.201Z,47456.00
2022-08-26T10:01:24.264Z,54688.00
2022-08-26T10:02:24.196Z,60576.00
2022-08-26T10:03:24.376Z,63904.00
2022-08-26T10:04:24.237Z,61120.00
2022-08-26T10:05:24.134Z,59296.00
2022-08-26T10:06:24.142Z,58528.00
2022-08-26T10:07:24.148Z,58976.00
2022-08-26T10:08:24.103Z,57024.00
2022-08-26T10:09:24.094Z,55904.00
2022-08-26T10:10:24.091Z,51584.00
2022-08-26T10:11:24.083Z,43584.00
2022-08-26T10:12:25.037Z,36512.00
2022-08-26T10:13:39.760Z,35936.00
2022-08-26T10:14:24.223Z,37760.00
2022-08-26T10:15:24.095Z,43136.00
2022-08-26T10:16:24.470Z,46400.00
2022-08-26T10:17:24.035Z,43616.00
2022-08-26T10:18:24.080Z,39840.00
2022-08-26T10:19:23.984Z,36416.00
2022-08-26T10:20:24.989Z,41184.00
2022-08-26T10:21:24.080Z,44992.00
2022-08-26T10:22:23.976Z,49664.00
2022-08-26T10:23:23.936Z,54432.00
2022-08-26T10:24:23.929Z,54816.00
2022-08-26T10:25:23.972Z,56320.00
2022-08-26T10:26:23.925Z,56032.00
2022-08-26T10:27:23.948Z,47040.00
2022-08-26T10:28:23.886Z,48800.00
2022-08-26T10:29:26.507Z,59456.00
2022-08-26T10:30:24.502Z,61568.00
2022-08-26T10:31:27.708Z,60832.00
2022-08-26T10:32:23.930Z,58336.00
2022-08-26T10:33:23.848Z,57824.00
2022-08-26T10:34:23.844Z,52832.00
2022-08-26T10:35:23.833Z,49472.00
2022-08-26T10:36:23.922Z,58592.00
2022-08-26T10:37:23.863Z,62624.00
2022-08-26T10:38:26.488Z,65216.00
2022-08-26T10:39:23.839Z,65824.00
2022-08-26T10:40:33.867Z,64448.00
2022-08-26T10:41:25.126Z,52896.00
2022-08-26T10:42:23.927Z,50912.00
2022-08-26T10:43:23.769Z,60640.00
2022-08-26T10:44:23.713Z,65088.00
2022-08-26T10:45:23.720Z,65376.00
2022-08-26T10:46:23.824Z,55616.00
2022-08-26T10:47:26.793Z,55936.00
2022-08-26T10:48:23.852Z,67456.00
2022-08-26T10:49:23.679Z,70656.00
2022-08-26T10:50:23.701Z,59648.00
2022-08-26T10:51:23.707Z,51136.00
2022-08-26T10:52:23.646Z,58688.00
2022-08-26T10:53:25.236Z,61280.00
2022-08-26T10:54:23.746Z,52768.00
2022-08-26T10:55:23.609Z,40704.00
2022-08-26T10:56:29.064Z,43648.00
2022-08-26T10:57:23.783Z,53792.00
2022-08-26T10:58:45.151Z,55456.00
2022-08-26T10:59:24.274Z,59072.00
2022-08-26T11:00:24.743Z,59072.00
2022-08-26T11:01:23.890Z,60320.00
2022-08-26T11:02:25.159Z,60384.00
2022-08-26T11:03:23.552Z,58912.00
2022-08-26T11:04:23.606Z,56512.00
2022-08-26T11:05:30.077Z,55264.00
2022-08-26T11:06:25.621Z,52992.00
2022-08-26T11:07:34.723Z,47552.00
2022-08-26T11:08:23.520Z,43616.00
2022-08-26T11:09:25.796Z,42752.00
2022-08-26T11:10:24.624Z,44288.00
2022-08-26T11:11:23.485Z,47040.00
2022-08-26T11:12:23.459Z,49632.00
2022-08-26T11:13:23.495Z,52736.00
2022-08-26T11:14:31.372Z,52768.00
2022-08-26T11:15:25.850Z,52480.00
2022-08-26T11:16:46.132Z,52544.00
2022-08-26T11:17:23.708Z,52096.00
2022-08-26T11:18:23.531Z,50080.00
2022-08-26T11:19:24.598Z,51040.00
2022-08-26T11:20:23.785Z,50528.00
2022-08-26T11:21:24.576Z,49824.00
2022-08-26T11:22:24.398Z,49536.00
2022-08-26T11:24:37.658Z,50656.00
2022-08-26T11:25:27.733Z,51616.00
2022-08-26T11:26:36.133Z,52448.00
2022-08-26T11:27:24.486Z,54080.00
2022-08-26T11:28:23.336Z,54720.00
2022-08-26T11:29:23.290Z,53152.00
2022-08-26T11:30:24.140Z,53632.00
2022-08-26T11:31:23.323Z,54144.00
2022-08-26T11:32:23.526Z,56000.00
2022-08-26T11:34:39.963Z,52864.00
2022-08-26T11:35:45.078Z,51680.00
2022-08-26T11:37:57.731Z,51840.00
2022-08-26T11:38:55.959Z,51872.00
2022-08-26T11:39:57.131Z,51424.00
2022-08-26T11:40:55.985Z,49824.00
2022-08-26T11:41:55.817Z,47776.00
2022-08-26T11:42:55.772Z,47136.00
2022-08-26T11:43:55.778Z,45312.00
2022-08-26T11:44:57.956Z,45568.00
2022-08-26T11:45:55.899Z,46560.00
2022-08-26T11:46:55.986Z,46976.00
2022-08-26T11:47:55.719Z,47744.00
2022-08-26T11:48:55.703Z,49760.00
2022-08-26T11:49:55.711Z,51872.00
2022-08-26T11:50:55.697Z,52768.00
2022-08-26T11:51:55.838Z,52864.00
2022-08-26T11:52:55.687Z,52832.00
2022-08-26T11:53:55.677Z,52512.00
2022-08-26T11:54:55.676Z,53024.00
2022-08-26T11:55:55.730Z,52512.00
2022-08-26T11:56:55.694Z,51424.00
2022-08-26T11:57:55.599Z,49856.00
2022-08-26T11:58:55.633Z,48128.00
2022-08-26T11:59:55.584Z,45344.00
2022-08-26T12:00:55.662Z,45376.00
2022-08-26T12:01:55.609Z,44128.00
2022-08-26T12:02:55.668Z,44256.00
2022-08-26T12:05:11.110Z,48416.00
2022-08-26T12:06:06.962Z,49504.00
2022-08-26T12:07:05.625Z,49632.00
2022-08-26T12:08:06.297Z,45728.00
2022-08-26T12:09:06.035Z,48064.00
2022-08-26T12:10:05.813Z,49120.00
2022-08-26T12:11:05.580Z,52608.00
2022-08-26T12:12:06.540Z,55648.00
2022-08-26T12:13:05.632Z,58976.00
2022-08-26T12:14:20.523Z,57632.00
2022-08-26T12:15:06.642Z,58656.00
2022-08-26T12:18:03.551Z,58816.00
2022-08-26T12:18:47.280Z,56640.00
2022-08-26T12:21:46.606Z,53376.00
2022-08-26T12:22:47.940Z,53696.00
2022-08-26T12:23:46.793Z,53984.00
2022-08-26T12:24:46.562Z,53056.00
2022-08-26T12:25:46.553Z,54976.00
2022-08-26T12:26:46.511Z,54080.00
2022-08-26T12:27:48.678Z,52064.00
2022-08-26T12:28:49.357Z,50496.00
2022-08-26T12:29:48.769Z,49024.00
2022-08-26T12:30:46.447Z,51424.00